Time,TemperatureF,DewpointF,PressureIn,WindDirection,WindDirectionDegrees,WindSpeedMPH,WindSpeedGustMPH,Humidity,HourlyPrecipIn,Conditions,Clouds,dailyrainin,SoftwareType,DateUTC
2013-02-07 00:00:00,33.8,26.4,30.26,WNW,291,0.0,6.0,74,0.00,,---,0.00,VWS V14.00,2013-02-07 05:00:00,
2013-02-07 00:01:00,33.8,26.4,30.26,WNW,291,2.0,6.0,74,0.00,,---,0.00,VWS V14.00,2013-02-07 05:01:00,
2013-02-07 00:06:00,34.0,26.6,30.26,WNW,291,4.0,6.0,74,0.00,,---,0.00,VWS V14.00,2013-02-07 05:06:00,
2013-02-07 00:11:00,34.1,26.4,30.26,WNW,291,0.0,6.0,73,0.00,,---,0.00,VWS V14.00,2013-02-07 05:11:00,
2013-02-07 00:16:00,34.1,26.4,30.25,WNW,291,0.0,6.0,73,0.00,,---,0.00,VWS V14.00,2013-02-07 05:16:00,
2013-02-07 00:21:00,34.1,26.7,30.25,WNW,291,0.0,6.0,74,0.00,,---,0.00,VWS V14.00,2013-02-07 05:21:00,
2013-02-07 00:26:00,34.0,26.3,30.25,WNW,291,0.0,6.0,73,0.00,,---,0.00,VWS V14.00,2013-02-07 05:26:00,
2013-02-07 00:31:00,33.8,26.1,30.24,WNW,291,0.0,0.0,73,0.00,,---,0.00,VWS V14.00,2013-02-07 05:31:00,
2013-02-07 00:37:00,33.8,26.1,30.24,WNW,291,0.0,0.0,73,0.00,,---,0.00,VWS V14.00,2013-02-07 05:37:00,
2013-02-07 00:42:00,33.7,26.6,30.24,WNW,291,0.0,0.0,75,0.00,,---,0.00,VWS V14.00,2013-02-07 05:42:00,
2013-02-07 00:47:00,33.7,26.3,30.24,WNW,291,0.0,0.0,74,0.00,,---,0.00,VWS V14.00,2013-02-07 05:47:00,
2013-02-07 00:52:00,33.5,26.1,30.24,WNW,291,0.0,0.0,74,0.00,,---,0.00,VWS V14.00,2013-02-07 05:52:00,
2013-02-07 00:57:00,33.5,26.4,30.24,WNW,291,0.0,0.0,75,0.00,,---,0.00,VWS V14.00,2013-02-07 05:57:00,
2013-02-07 01:02:00,33.4,26.3,30.24,WNW,291,0.0,0.0,75,0.00,,---,0.00,VWS V14.00,2013-02-07 06:02:00,
2013-02-07 01:07:00,33.2,26.1,30.24,WNW,291,0.0,0.0,75,0.00,,---,0.00,VWS V14.00,2013-02-07 06:07:00,
2013-02-07 01:12:00,33.1,26.4,30.24,WNW,291,0.0,0.0,76,0.00,,---,0.00,VWS V14.00,2013-02-07 06:12:00,
2013-02-07 01:17:00,32.9,26.5,30.24,WNW,291,0.0,0.0,77,0.00,,---,0.00,VWS V14.00,2013-02-07 06:17:00,
2013-02-07 01:22:00,32.7,26.3,30.24,WNW,291,0.0,0.0,77,0.00,,---,0.00,VWS V14.00,2013-02-07 06:22:00,
2013-02-07 01:27:00,32.4,26.3,30.24,WNW,291,0.0,0.0,78,0.00,,---,0.00,VWS V14.00,2013-02-07 06:27:00,
2013-02-07 01:32:00,32.2,26.1,30.24,WNW,291,0.0,0.0,78,0.00,,---,0.00,VWS V14.00,2013-02-07 06:32:00,
2013-02-07 01:37:00,31.9,25.8,30.24,WNW,291,0.0,0.0,78,0.00,,---,0.00,VWS V14.00,2013-02-07 06:37:00,
2013-02-07 01:42:00,31.8,26.0,30.24,WNW,291,0.0,0.0,79,0.00,,---,0.00,VWS V14.00,2013-02-07 06:42:00,
2013-02-07 01:47:00,31.8,26.4,30.23,WNW,291,0.0,0.0,80,0.00,,---,0.00,VWS V14.00,2013-02-07 06:47:00,
2013-02-07 01:52:00,31.8,26.4,30.23,WNW,291,0.0,2.0,80,0.00,,---,0.00,VWS V14.00,2013-02-07 06:52:00,
2013-02-07 01:57:00,31.9,26.1,30.23,WNW,291,0.0,2.0,79,0.00,,---,0.00,VWS V14.00,2013-02-07 06:57:00,
2013-02-07 02:02:00,32.1,26.3,30.23,WNW,291,0.0,0.0,79,0.00,,---,0.00,VWS V14.00,2013-02-07 07:02:00,
2013-02-07 02:07:00,32.4,26.0,30.23,WNW,291,1.0,2.0,77,0.00,,---,0.00,VWS V14.00,2013-02-07 07:07:00,
2013-02-07 02:12:00,32.8,26.1,30.23,WNW,291,0.0,2.0,76,0.00,,---,0.00,VWS V14.00,2013-02-07 07:12:00,
2013-02-07 02:17:00,32.8,26.4,30.22,WNW,291,1.0,4.0,77,0.00,,---,0.00,VWS V14.00,2013-02-07 07:17:00,
2013-02-07 02:22:00,33.2,25.8,30.22,WNW,291,0.0,4.0,74,0.00,,---,0.00,VWS V14.00,2013-02-07 07:22:00,
2013-02-07 02:27:00,33.8,25.7,30.22,WNW,291,0.0,4.0,72,0.00,,---,0.00,VWS V14.00,2013-02-07 07:27:00,
2013-02-07 02:32:00,34.1,26.0,30.21,WNW,291,1.0,4.0,72,0.00,,---,0.00,VWS V14.00,2013-02-07 07:32:00,
2013-02-07 02:37:00,34.1,26.4,30.21,WNW,291,0.0,4.0,73,0.00,,---,0.00,VWS V14.00,2013-02-07 07:37:00,
2013-02-07 02:42:00,34.1,26.0,30.21,WNW,291,4.0,4.0,72,0.00,,---,0.00,VWS V14.00,2013-02-07 07:42:00,
2013-02-07 02:48:00,34.3,25.5,30.20,WNW,291,1.0,6.0,70,0.00,,---,0.00,VWS V14.00,2013-02-07 07:48:00,
2013-02-07 02:53:00,34.7,25.6,30.20,WNW,291,0.0,6.0,69,0.00,,---,0.00,VWS V14.00,2013-02-07 07:53:00,
2013-02-07 02:58:00,35.0,25.5,30.20,WNW,291,4.0,6.0,68,0.00,,---,0.00,VWS V14.00,2013-02-07 07:58:00,
2013-02-07 03:03:00,35.0,25.5,30.21,WNW,291,0.0,4.0,68,0.00,,---,0.00,VWS V14.00,2013-02-07 08:03:00,
2013-02-07 03:08:00,35.2,26.4,30.21,WNW,291,1.0,4.0,70,0.00,,---,0.00,VWS V14.00,2013-02-07 08:08:00,
2013-02-07 03:13:00,35.2,25.7,30.21,WNW,291,0.0,6.0,68,0.00,,---,0.00,VWS V14.00,2013-02-07 08:13:00,
2013-02-07 03:18:00,35.5,25.6,30.21,WNW,291,0.0,6.0,67,0.00,,---,0.00,VWS V14.00,2013-02-07 08:18:00,
2013-02-07 03:23:00,35.8,25.9,30.21,WNW,291,0.0,6.0,67,0.00,,---,0.00,VWS V14.00,2013-02-07 08:23:00,
2013-02-07 03:28:00,35.9,25.7,30.21,WNW,291,2.0,6.0,66,0.00,,---,0.00,VWS V14.00,2013-02-07 08:28:00,
2013-02-07 03:33:00,36.0,26.1,30.21,WNW,291,2.0,4.0,67,0.00,,---,0.00,VWS V14.00,2013-02-07 08:33:00,
2013-02-07 03:38:00,36.0,25.0,30.21,NW,309,0.0,4.0,64,0.00,,---,0.00,VWS V14.00,2013-02-07 08:38:00,
2013-02-07 03:43:00,36.5,25.1,30.21,NW,309,0.0,4.0,63,0.00,,---,0.00,VWS V14.00,2013-02-07 08:43:00,
2013-02-07 03:48:00,36.6,26.0,30.21,NW,309,0.0,4.0,65,0.00,,---,0.00,VWS V14.00,2013-02-07 08:48:00,
2013-02-07 03:53:00,36.6,25.2,30.21,NW,309,2.0,6.0,63,0.00,,---,0.00,VWS V14.00,2013-02-07 08:53:00,
2013-02-07 03:58:00,37.0,25.2,30.21,NNE,31,1.0,6.0,62,0.00,,---,0.00,VWS V14.00,2013-02-07 08:58:00,
2013-02-07 04:03:00,36.9,25.5,30.22,NNE,31,0.0,0.0,63,0.00,,---,0.00,VWS V14.00,2013-02-07 09:03:00,
2013-02-07 04:08:00,37.0,25.2,30.22,NNE,31,0.0,2.0,62,0.00,,---,0.00,VWS V14.00,2013-02-07 09:08:00,
2013-02-07 04:13:00,37.0,25.2,30.22,NNE,31,0.0,2.0,62,0.00,,---,0.00,VWS V14.00,2013-02-07 09:13:00,
2013-02-07 04:18:00,36.9,25.1,30.24,NNE,31,2.0,6.0,62,0.00,,---,0.00,VWS V14.00,2013-02-07 09:18:00,
2013-02-07 04:23:00,36.8,25.8,30.24,NNE,31,2.0,6.0,64,0.00,,---,0.00,VWS V14.00,2013-02-07 09:23:00,
2013-02-07 04:28:00,36.6,24.8,30.24,NNE,31,0.0,6.0,62,0.00,,---,0.00,VWS V14.00,2013-02-07 09:28:00,
2013-02-07 04:33:00,36.6,25.6,30.25,NNE,31,2.0,6.0,64,0.00,,---,0.00,VWS V14.00,2013-02-07 09:33:00,
2013-02-07 04:38:00,36.8,25.4,30.25,NNE,31,0.0,6.0,63,0.00,,---,0.00,VWS V14.00,2013-02-07 09:38:00,
2013-02-07 04:43:00,36.9,25.1,30.25,NNE,31,1.0,6.0,62,0.00,,---,0.00,VWS V14.00,2013-02-07 09:43:00,
2013-02-07 04:48:00,37.0,25.6,30.25,NE,35,1.0,6.0,63,0.00,,---,0.00,VWS V14.00,2013-02-07 09:48:00,
2013-02-07 04:53:00,37.0,25.2,30.25,NE,35,0.0,6.0,62,0.00,,---,0.00,VWS V14.00,2013-02-07 09:53:00,
2013-02-07 04:58:00,37.0,25.6,30.25,NE,35,0.0,6.0,63,0.00,,---,0.00,VWS V14.00,2013-02-07 09:58:00,
2013-02-07 05:03:00,36.9,25.1,30.25,NE,35,0.0,6.0,62,0.00,,---,0.00,VWS V14.00,2013-02-07 10:03:00,
2013-02-07 05:08:00,36.9,25.1,30.25,NE,35,2.0,6.0,62,0.00,,---,0.00,VWS V14.00,2013-02-07 10:08:00,
2013-02-07 05:13:00,37.0,25.6,30.25,NE,35,1.0,6.0,63,0.00,,---,0.00,VWS V14.00,2013-02-07 10:13:00,
2013-02-07 05:18:00,37.2,25.0,30.27,NE,35,0.0,6.0,61,0.00,,---,0.00,VWS V14.00,2013-02-07 10:18:00,
2013-02-07 05:23:00,37.2,25.8,30.27,NE,35,0.0,6.0,63,0.00,,---,0.00,VWS V14.00,2013-02-07 10:23:00,
2013-02-07 05:28:00,37.2,25.8,30.27,NE,35,0.0,6.0,63,0.00,,---,0.00,VWS V14.00,2013-02-07 10:28:00,
2013-02-07 05:33:00,37.3,25.5,30.27,NE,35,0.0,0.0,62,0.00,,---,0.00,VWS V14.00,2013-02-07 10:33:00,
2013-02-07 05:39:00,37.5,25.3,30.27,NE,35,0.0,2.0,61,0.00,,---,0.00,VWS V14.00,2013-02-07 10:39:00,
2013-02-07 05:44:00,37.3,25.1,30.27,NE,35,0.0,4.0,61,0.00,,---,0.00,VWS V14.00,2013-02-07 10:44:00,
2013-02-07 05:49:00,37.5,25.7,30.26,NE,35,0.0,4.0,62,0.00,,---,0.00,VWS V14.00,2013-02-07 10:49:00,
2013-02-07 05:54:00,37.3,25.5,30.26,NE,35,4.0,4.0,62,0.00,,---,0.00,VWS V14.00,2013-02-07 10:54:00,
2013-02-07 05:59:00,37.5,25.3,30.26,NE,35,4.0,6.0,61,0.00,,---,0.00,VWS V14.00,2013-02-07 10:59:00,
2013-02-07 06:04:00,37.9,25.7,30.26,NE,44,2.0,6.0,61,0.00,,---,0.00,VWS V14.00,2013-02-07 11:04:00,
2013-02-07 06:09:00,38.3,26.0,30.26,ENE,58,0.0,8.0,61,0.00,,---,0.00,VWS V14.00,2013-02-07 11:09:00,
2013-02-07 06:14:00,38.3,26.4,30.26,ENE,58,0.0,8.0,62,0.00,,---,0.00,VWS V14.00,2013-02-07 11:14:00,
2013-02-07 06:19:00,38.2,25.5,30.26,ENE,58,4.0,8.0,60,0.00,,---,0.00,VWS V14.00,2013-02-07 11:19:00,
2013-02-07 06:24:00,38.0,26.1,30.26,SE,136,0.0,8.0,62,0.00,,---,0.00,VWS V14.00,2013-02-07 11:24:00,
2013-02-07 06:29:00,37.9,26.1,30.26,East,86,7.0,8.0,62,0.00,,---,0.00,VWS V14.00,2013-02-07 11:29:00,
2013-02-07 06:34:00,38.0,25.8,30.25,ENE,71,0.0,4.0,61,0.00,,---,0.00,VWS V14.00,2013-02-07 11:34:00,
2013-02-07 06:39:00,38.2,25.1,30.25,ENE,72,0.0,6.0,59,0.00,,---,0.00,VWS V14.00,2013-02-07 11:39:00,
2013-02-07 06:46:00,38.2,25.5,30.25,ENE,73,0.0,6.0,60,0.00,,---,0.00,VWS V14.00,2013-02-07 11:46:00,
2013-02-07 06:52:00,38.5,25.8,30.25,ENE,75,0.0,6.0,60,0.00,,---,0.00,VWS V14.00,2013-02-07 11:52:00,
2013-02-07 06:57:00,38.5,25.8,30.25,ENE,76,0.0,6.0,60,0.00,,---,0.00,VWS V14.00,2013-02-07 11:57:00,
2013-02-07 07:02:00,38.5,25.4,30.25,East,80,0.0,4.0,59,0.00,,---,0.00,VWS V14.00,2013-02-07 12:02:00,
2013-02-07 07:07:00,38.5,25.8,30.25,East,83,0.0,6.0,60,0.00,,---,0.00,VWS V14.00,2013-02-07 12:07:00,
2013-02-07 07:12:00,38.6,25.9,30.25,East,83,2.0,6.0,60,0.00,,---,0.00,VWS V14.00,2013-02-07 12:12:00,
2013-02-07 07:17:00,38.6,25.9,30.26,East,85,0.0,6.0,60,0.00,,---,0.00,VWS V14.00,2013-02-07 12:17:00,
2013-02-07 07:22:00,38.5,26.6,30.26,East,88,4.0,7.0,62,0.00,,---,0.00,VWS V14.00,2013-02-07 12:22:00,
2013-02-07 07:27:00,38.3,26.8,30.26,East,88,4.0,7.0,63,0.00,,---,0.00,VWS V14.00,2013-02-07 12:27:00,
2013-02-07 07:32:00,38.3,26.0,30.26,South,169,0.0,1.0,61,0.00,,---,0.00,VWS V14.00,2013-02-07 12:32:00,
2013-02-07 07:37:00,38.3,26.4,30.26,South,169,1.0,6.0,62,0.00,,---,0.00,VWS V14.00,2013-02-07 12:37:00,
2013-02-07 07:42:00,38.3,25.6,30.26,South,169,0.0,6.0,60,0.00,,---,0.00,VWS V14.00,2013-02-07 12:42:00,
2013-02-07 07:47:00,38.3,26.4,30.27,South,169,4.0,6.0,62,0.00,,---,0.00,VWS V14.00,2013-02-07 12:47:00,
2013-02-07 07:52:00,38.3,26.0,30.27,South,169,1.0,6.0,61,0.00,,---,0.00,VWS V14.00,2013-02-07 12:52:00,
2013-02-07 07:57:00,38.5,26.2,30.27,South,169,0.0,6.0,61,0.00,,---,0.00,VWS V14.00,2013-02-07 12:57:00,
2013-02-07 08:02:00,38.6,27.5,30.27,SSE,168,2.0,4.0,64,0.00,,---,0.00,VWS V14.00,2013-02-07 13:02:00,
2013-02-07 08:07:00,38.6,27.1,30.27,SSE,168,0.0,4.0,63,0.00,,---,0.00,VWS V14.00,2013-02-07 13:07:00,
2013-02-07 08:12:00,38.6,26.3,30.27,South,171,0.0,4.0,61,0.00,,---,0.00,VWS V14.00,2013-02-07 13:12:00,
2013-02-07 08:18:00,38.8,26.5,30.28,South,171,0.0,4.0,61,0.00,,---,0.00,VWS V14.00,2013-02-07 13:18:00,
2013-02-07 08:23:00,39.1,26.4,30.28,SSE,160,0.0,4.0,60,0.00,,---,0.00,VWS V14.00,2013-02-07 13:23:00,
2013-02-07 08:28:00,39.2,26.5,30.28,SSE,160,0.0,4.0,60,0.00,,---,0.00,VWS V14.00,2013-02-07 13:28:00,
2013-02-07 08:33:00,39.3,26.2,30.28,SSE,160,0.0,1.0,59,0.00,,---,0.00,VWS V14.00,2013-02-07 13:33:00,
2013-02-07 08:38:00,39.6,27.3,30.28,SSE,160,0.0,2.0,61,0.00,,---,0.00,VWS V14.00,2013-02-07 13:38:00,
2013-02-07 08:43:00,39.6,26.5,30.28,SSE,160,4.0,6.0,59,0.00,,---,0.00,VWS V14.00,2013-02-07 13:43:00,
2013-02-07 08:48:00,39.8,27.5,30.26,SSE,160,0.0,6.0,61,0.00,,---,0.00,VWS V14.00,2013-02-07 13:48:00,
2013-02-07 08:53:00,39.8,27.1,30.26,SSE,160,0.0,6.0,60,0.00,,---,0.00,VWS V14.00,2013-02-07 13:53:00,
2013-02-07 08:58:00,39.8,28.6,30.26,SSE,160,0.0,6.0,64,0.00,,---,0.00,VWS V14.00,2013-02-07 13:58:00,
2013-02-07 09:03:00,39.9,26.8,30.26,SSE,161,0.0,4.0,59,0.00,,---,0.00,VWS V14.00,2013-02-07 14:03:00,
2013-02-07 09:08:00,40.2,27.0,30.26,SSE,160,4.0,4.0,59,0.00,,---,0.00,VWS V14.00,2013-02-07 14:08:00,
2013-02-07 09:13:00,40.5,26.9,30.26,SSE,160,0.0,4.0,58,0.00,,---,0.00,VWS V14.00,2013-02-07 14:13:00,
2013-02-07 09:18:00,40.8,27.6,30.26,SSE,160,2.0,4.0,59,0.00,,---,0.00,VWS V14.00,2013-02-07 14:18:00,
2013-02-07 09:24:00,41.1,27.0,30.26,SE,141,2.0,4.0,57,0.00,,---,0.00,VWS V14.00,2013-02-07 14:24:00,
2013-02-07 09:29:00,41.2,27.1,30.26,SE,140,1.0,6.0,57,0.00,,---,0.00,VWS V14.00,2013-02-07 14:29:00,
2013-02-07 09:34:00,41.5,27.4,30.26,SE,140,1.0,6.0,57,0.00,,---,0.00,VWS V14.00,2013-02-07 14:34:00,
2013-02-07 09:39:00,41.8,29.4,30.26,SE,140,1.0,6.0,61,0.00,,---,0.00,VWS V14.00,2013-02-07 14:39:00,
2013-02-07 09:44:00,41.9,27.8,30.26,SE,140,0.0,6.0,57,0.00,,---,0.00,VWS V14.00,2013-02-07 14:44:00,
2013-02-07 09:49:00,42.2,28.9,30.25,SE,140,2.0,6.0,59,0.00,,---,0.00,VWS V14.00,2013-02-07 14:49:00,
2013-02-07 09:54:00,42.3,28.2,30.25,SE,140,0.0,6.0,57,0.00,,---,0.00,VWS V14.00,2013-02-07 14:54:00,
2013-02-07 09:59:00,42.5,28.8,30.25,SE,140,0.0,6.0,58,0.00,,---,0.00,VWS V14.00,2013-02-07 14:59:00,
2013-02-07 10:04:00,42.6,27.6,30.25,SE,133,1.0,7.0,55,0.00,,---,0.00,VWS V14.00,2013-02-07 15:04:00,
2013-02-07 10:09:00,42.6,28.9,30.25,SE,133,2.0,7.0,58,0.00,,---,0.00,VWS V14.00,2013-02-07 15:09:00,
2013-02-07 10:14:00,42.6,28.0,30.25,ESE,102,1.0,8.0,56,0.00,,---,0.00,VWS V14.00,2013-02-07 15:14:00,
2013-02-07 10:19:00,42.8,27.8,30.25,ESE,102,4.0,8.0,55,0.00,,---,0.00,VWS V14.00,2013-02-07 15:19:00,
2013-02-07 10:24:00,42.9,29.6,30.25,ESE,102,0.0,8.0,59,0.00,,---,0.00,VWS V14.00,2013-02-07 15:24:00,
2013-02-07 10:29:00,43.2,28.1,30.25,East,99,0.0,8.0,55,0.00,,---,0.00,VWS V14.00,2013-02-07 15:29:00,
2013-02-07 10:34:00,43.5,29.3,30.25,East,99,0.0,2.0,57,0.00,,---,0.00,VWS V14.00,2013-02-07 15:34:00,
2013-02-07 10:39:00,43.6,28.1,30.25,East,97,1.0,7.0,54,0.00,,---,0.00,VWS V14.00,2013-02-07 15:39:00,
2013-02-07 10:44:00,43.9,28.8,30.24,East,96,4.0,7.0,55,0.00,,---,0.00,VWS V14.00,2013-02-07 15:44:00,
2013-02-07 10:49:00,44.1,28.5,30.24,NE,55,6.0,9.0,54,0.00,,---,0.00,VWS V14.00,2013-02-07 15:49:00,
2013-02-07 10:54:00,44.3,31.3,30.24,East,89,0.0,9.0,60,0.00,,---,0.00,VWS V14.00,2013-02-07 15:54:00,
2013-02-07 10:59:00,44.3,28.7,30.23,East,86,6.0,9.0,54,0.00,,---,0.00,VWS V14.00,2013-02-07 15:59:00,
2013-02-07 11:04:00,44.5,31.1,30.23,SE,127,6.0,6.0,59,0.00,,---,0.00,VWS V14.00,2013-02-07 16:04:00,
2013-02-07 11:09:00,44.8,29.2,30.23,NE,38,4.0,9.0,54,0.00,,---,0.00,VWS V14.00,2013-02-07 16:09:00,
2013-02-07 11:14:00,44.9,29.7,30.23,NE,45,4.0,9.0,55,0.00,,---,0.00,VWS V14.00,2013-02-07 16:14:00,
2013-02-07 11:19:00,45.1,29.5,30.23,NE,44,6.0,9.0,54,0.00,,---,0.00,VWS V14.00,2013-02-07 16:19:00,
2013-02-07 11:24:00,45.2,29.1,30.23,NE,52,7.0,10.0,53,0.00,,---,0.00,VWS V14.00,2013-02-07 16:24:00,
2013-02-07 11:29:00,45.4,30.2,30.22,NNE,30,7.0,11.0,55,0.00,,---,0.00,VWS V14.00,2013-02-07 16:29:00,
2013-02-07 11:34:00,45.4,29.7,30.22,NE,38,4.0,11.0,54,0.00,,---,0.00,VWS V14.00,2013-02-07 16:34:00,
2013-02-07 11:39:00,45.5,31.2,30.22,ENE,76,2.0,11.0,57,0.00,,---,0.00,VWS V14.00,2013-02-07 16:39:00,
2013-02-07 11:44:00,45.7,30.0,30.20,ESE,106,1.0,11.0,54,0.00,,---,0.00,VWS V14.00,2013-02-07 16:44:00,
2013-02-07 11:49:00,45.8,29.7,30.20,NE,42,11.0,11.0,53,0.00,,---,0.00,VWS V14.00,2013-02-07 16:49:00,
2013-02-07 11:54:00,46.1,31.3,30.20,NE,54,2.0,13.0,56,0.00,,---,0.00,VWS V14.00,2013-02-07 16:54:00,
2013-02-07 11:59:00,46.2,30.5,30.19,East,99,6.0,13.0,54,0.00,,---,0.00,VWS V14.00,2013-02-07 16:59:00,
2013-02-07 12:05:00,46.5,30.8,30.19,East,92,4.0,6.0,54,0.00,,---,0.00,VWS V14.00,2013-02-07 17:05:00,
2013-02-07 12:10:00,46.8,30.6,30.19,ENE,68,8.0,8.0,53,0.00,,---,0.00,VWS V14.00,2013-02-07 17:10:00,
2013-02-07 12:15:00,47.0,31.2,30.17,East,92,8.0,9.0,54,0.00,,---,0.00,VWS V14.00,2013-02-07 17:15:00,
2013-02-07 12:20:00,47.3,31.5,30.17,NNE,28,2.0,9.0,54,0.00,,---,0.00,VWS V14.00,2013-02-07 17:20:00,
2013-02-07 12:25:00,47.6,31.8,30.17,NE,35,1.0,9.0,54,0.00,,---,0.00,VWS V14.00,2013-02-07 17:25:00,
2013-02-07 12:30:00,48.0,31.7,30.16,NE,42,4.0,9.0,53,0.00,,---,0.00,VWS V14.00,2013-02-07 17:30:00,
2013-02-07 12:35:00,48.3,32.0,30.16,NE,48,0.0,6.0,53,0.00,,---,0.00,VWS V14.00,2013-02-07 17:35:00,
2013-02-07 12:40:00,48.6,32.3,30.16,NE,48,2.0,6.0,53,0.00,,---,0.00,VWS V14.00,2013-02-07 17:40:00,
2013-02-07 12:45:00,48.5,32.6,30.15,ENE,64,4.0,7.0,54,0.00,,---,0.00,VWS V14.00,2013-02-07 17:45:00,
2013-02-07 12:50:00,48.5,32.6,30.15,ENE,62,0.0,7.0,54,0.00,,---,0.00,VWS V14.00,2013-02-07 17:50:00,
2013-02-07 12:55:00,48.6,33.6,30.15,ENE,62,6.0,8.0,56,0.00,,---,0.00,VWS V14.00,2013-02-07 17:55:00,
2013-02-07 13:00:00,48.6,34.1,30.14,ENE,64,0.0,9.0,57,0.00,,---,0.00,VWS V14.00,2013-02-07 18:00:00,
2013-02-07 13:05:00,48.9,34.3,30.14,East,86,0.0,8.0,57,0.00,,---,0.00,VWS V14.00,2013-02-07 18:05:00,
2013-02-07 13:10:00,48.9,34.3,30.14,ENE,69,4.0,8.0,57,0.00,,---,0.00,VWS V14.00,2013-02-07 18:10:00,
2013-02-07 13:15:00,49.1,34.5,30.14,NE,52,4.0,8.0,57,0.00,,---,0.00,VWS V14.00,2013-02-07 18:15:00,
2013-02-07 13:20:00,49.1,34.1,30.14,NE,45,6.0,9.0,56,0.00,,---,0.00,VWS V14.00,2013-02-07 18:20:00,
2013-02-07 13:25:00,48.9,33.9,30.14,NE,38,4.0,9.0,56,0.00,,---,0.00,VWS V14.00,2013-02-07 18:25:00,
2013-02-07 13:30:00,49.1,34.5,30.13,ENE,69,4.0,4.0,57,0.00,,---,0.00,VWS V14.00,2013-02-07 18:30:00,
2013-02-07 13:35:00,49.1,34.5,30.13,NE,42,6.0,8.0,57,0.00,,---,0.00,VWS V14.00,2013-02-07 18:35:00,
2013-02-07 13:40:00,49.1,34.5,30.13,NE,55,7.0,8.0,57,0.00,,---,0.00,VWS V14.00,2013-02-07 18:40:00,
2013-02-07 13:45:00,48.9,34.3,30.12,NE,41,6.0,8.0,57,0.00,,---,0.00,VWS V14.00,2013-02-07 18:45:00,
2013-02-07 13:50:00,49.1,35.8,30.12,NE,49,0.0,8.0,60,0.00,,---,0.00,VWS V14.00,2013-02-07 18:50:00,
2013-02-07 13:55:00,49.2,35.9,30.12,NE,52,6.0,8.0,60,0.00,,---,0.00,VWS V14.00,2013-02-07 18:55:00,
2013-02-07 14:00:00,49.5,35.8,30.11,NE,51,4.0,8.0,59,0.00,,---,0.00,VWS V14.00,2013-02-07 19:00:00,
2013-02-07 14:05:00,49.6,36.3,30.11,NE,51,1.0,6.0,60,0.00,,---,0.00,VWS V14.00,2013-02-07 19:05:00,
2013-02-07 14:10:00,49.9,36.2,30.11,NE,51,6.0,7.0,59,0.00,,---,0.00,VWS V14.00,2013-02-07 19:10:00,
2013-02-07 14:15:00,50.2,35.6,30.11,ENE,66,0.0,8.0,57,0.00,,---,0.00,VWS V14.00,2013-02-07 19:15:00,
2013-02-07 14:20:00,50.7,35.6,30.11,ENE,68,0.0,8.0,56,0.00,,---,0.00,VWS V14.00,2013-02-07 19:20:00,
2013-02-07 14:25:00,51.1,35.0,30.11,NE,44,1.0,8.0,54,0.00,,---,0.00,VWS V14.00,2013-02-07 19:25:00,
2013-02-07 14:30:00,51.4,34.9,30.10,NE,38,7.0,8.0,53,0.00,,---,0.00,VWS V14.00,2013-02-07 19:30:00,
2013-02-07 14:35:00,51.6,35.5,30.10,ENE,65,0.0,8.0,54,0.00,,---,0.00,VWS V14.00,2013-02-07 19:35:00,
2013-02-07 14:40:00,51.6,34.1,30.10,NE,34,6.0,8.0,51,0.00,,---,0.00,VWS V14.00,2013-02-07 19:40:00,
2013-02-07 14:45:00,51.4,34.4,30.10,NNE,31,4.0,8.0,52,0.00,,---,0.00,VWS V14.00,2013-02-07 19:45:00,
2013-02-07 14:50:00,51.3,35.2,30.10,NE,41,0.0,8.0,54,0.00,,---,0.00,VWS V14.00,2013-02-07 19:50:00,
2013-02-07 14:55:00,51.3,34.8,30.10,NE,42,2.0,8.0,53,0.00,,---,0.00,VWS V14.00,2013-02-07 19:55:00,
2013-02-07 15:00:00,51.3,35.7,30.10,NE,54,4.0,4.0,55,0.00,,---,0.00,VWS V14.00,2013-02-07 20:00:00,
2013-02-07 15:05:00,51.0,34.5,30.10,ENE,59,2.0,10.0,53,0.00,,---,0.00,VWS V14.00,2013-02-07 20:05:00,
2013-02-07 15:10:00,50.7,34.2,30.10,ENE,59,4.0,10.0,53,0.00,,---,0.00,VWS V14.00,2013-02-07 20:10:00,
2013-02-07 15:16:00,50.5,35.0,30.09,ENE,61,1.0,10.0,55,0.00,,---,0.00,VWS V14.00,2013-02-07 20:16:00,
2013-02-07 15:21:00,50.4,34.9,30.09,East,96,6.0,10.0,55,0.00,,---,0.00,VWS V14.00,2013-02-07 20:21:00,
2013-02-07 15:26:00,50.1,35.5,30.09,ENE,64,4.0,10.0,57,0.00,,---,0.00,VWS V14.00,2013-02-07 20:26:00,
2013-02-07 15:31:00,49.6,36.3,30.10,ENE,68,0.0,1.0,60,0.00,,---,0.00,VWS V14.00,2013-02-07 20:31:00,
2013-02-07 15:36:00,49.2,36.3,30.10,East,88,9.0,10.0,61,0.00,,---,0.00,VWS V14.00,2013-02-07 20:36:00,
2013-02-07 15:41:00,48.9,36.5,30.10,East,82,7.0,10.0,62,0.00,,---,0.00,VWS V14.00,2013-02-07 20:41:00,
2013-02-07 15:46:00,48.3,36.7,30.09,East,89,6.0,13.0,64,0.00,,---,0.00,VWS V14.00,2013-02-07 20:46:00,
2013-02-07 15:51:00,48.2,37.0,30.09,ENE,64,2.0,13.0,65,0.00,,---,0.00,VWS V14.00,2013-02-07 20:51:00,
2013-02-07 15:56:00,47.7,36.9,30.09,East,89,2.0,16.0,66,0.00,,---,0.00,VWS V14.00,2013-02-07 20:56:00,
2013-02-07 16:01:00,47.3,37.3,30.10,East,95,6.0,7.0,68,0.00,,---,0.00,VWS V14.00,2013-02-07 21:01:00,
2013-02-07 16:06:00,47.0,37.7,30.10,ESE,116,10.0,10.0,70,0.00,,---,0.00,VWS V14.00,2013-02-07 21:06:00,
2013-02-07 16:11:00,46.5,38.0,30.10,ENE,66,2.0,14.0,72,0.00,,---,0.00,VWS V14.00,2013-02-07 21:11:00,
2013-02-07 16:16:00,46.1,37.9,30.11,East,79,8.0,14.0,73,0.00,,---,0.00,VWS V14.00,2013-02-07 21:16:00,
2013-02-07 16:21:00,45.7,37.9,30.11,NE,41,6.0,14.0,74,0.00,,---,0.00,VWS V14.00,2013-02-07 21:21:00,
2013-02-07 16:26:00,45.5,37.7,30.11,ENE,72,6.0,14.0,74,0.00,,---,0.00,VWS V14.00,2013-02-07 21:26:00,
2013-02-07 16:31:00,45.4,37.3,30.10,North,10,7.0,7.0,73,0.00,,---,0.00,VWS V14.00,2013-02-07 21:31:00,
2013-02-07 16:36:00,45.2,37.4,30.10,SE,144,4.0,11.0,74,0.00,,---,0.00,VWS V14.00,2013-02-07 21:36:00,
2013-02-07 16:41:00,45.2,37.4,30.10,ESE,112,0.0,11.0,74,0.00,,---,0.00,VWS V14.00,2013-02-07 21:41:00,
2013-02-07 16:46:00,45.2,37.1,30.10,NE,38,2.0,11.0,73,0.00,,---,0.00,VWS V14.00,2013-02-07 21:46:00,
2013-02-07 16:51:00,45.1,37.0,30.10,NNE,32,4.0,11.0,73,0.00,,---,0.00,VWS V14.00,2013-02-07 21:51:00,
2013-02-07 16:56:00,45.1,37.0,30.10,NNE,14,10.0,11.0,73,0.00,,---,0.00,VWS V14.00,2013-02-07 21:56:00,
2013-02-07 17:01:00,44.9,36.8,30.10,ENE,59,14.0,14.0,73,0.00,,---,0.00,VWS V14.00,2013-02-07 22:01:00,
2013-02-07 17:06:00,44.9,36.8,30.10,East,83,9.0,14.0,73,0.00,,---,0.00,VWS V14.00,2013-02-07 22:06:00,
2013-02-07 17:11:00,44.9,36.4,30.10,ENE,71,7.0,16.0,72,0.00,,---,0.00,VWS V14.00,2013-02-07 22:11:00,
2013-02-07 17:16:00,44.9,36.4,30.10,ENE,73,6.0,16.0,72,0.00,,---,0.00,VWS V14.00,2013-02-07 22:16:00,
2013-02-07 17:21:00,44.8,36.7,30.10,East,79,6.0,16.0,73,0.00,,---,0.00,VWS V14.00,2013-02-07 22:21:00,
2013-02-07 17:26:00,44.6,36.5,30.10,ENE,64,4.0,16.0,73,0.00,,---,0.00,VWS V14.00,2013-02-07 22:26:00,
2013-02-07 17:32:00,44.5,36.4,30.10,East,97,4.0,14.0,73,0.00,,---,0.00,VWS V14.00,2013-02-07 22:32:00,
2013-02-07 17:37:00,44.5,36.7,30.10,East,89,4.0,14.0,74,0.00,,---,0.00,VWS V14.00,2013-02-07 22:37:00,
2013-02-07 17:42:00,44.3,36.5,30.10,ENE,75,6.0,14.0,74,0.00,,---,0.00,VWS V14.00,2013-02-07 22:42:00,
2013-02-07 17:47:00,44.2,36.1,30.10,ESE,109,6.0,14.0,73,0.00,,---,0.00,VWS V14.00,2013-02-07 22:47:00,
2013-02-07 17:52:00,44.2,36.5,30.10,East,86,4.0,14.0,74,0.00,,---,0.00,VWS V14.00,2013-02-07 22:52:00,
2013-02-07 17:57:00,44.1,36.7,30.10,West,271,2.0,14.0,75,0.00,,---,0.00,VWS V14.00,2013-02-07 22:57:00,
2013-02-07 18:02:00,43.9,36.8,30.09,ENE,76,2.0,6.0,76,0.00,,---,0.00,VWS V14.00,2013-02-07 23:02:00,
2013-02-07 18:07:00,43.6,36.9,30.09,East,82,4.0,11.0,77,0.00,,---,0.00,VWS V14.00,2013-02-07 23:07:00,
2013-02-07 18:12:00,43.5,37.1,30.09,ENE,78,4.0,11.0,78,0.00,,---,0.00,VWS V14.00,2013-02-07 23:12:00,
2013-02-07 18:17:00,43.3,36.9,30.09,ENE,73,8.0,17.0,78,0.00,,---,0.00,VWS V14.00,2013-02-07 23:17:00,
2013-02-07 18:22:00,43.2,37.1,30.09,East,89,4.0,17.0,79,0.00,,---,0.00,VWS V14.00,2013-02-07 23:22:00,
2013-02-07 18:27:00,42.9,37.2,30.09,East,86,7.0,17.0,80,0.00,,---,0.00,VWS V14.00,2013-02-07 23:27:00,
2013-02-07 18:32:00,42.9,37.2,30.09,East,97,2.0,6.0,80,0.00,,---,0.00,VWS V14.00,2013-02-07 23:32:00,
2013-02-07 18:37:00,42.8,37.1,30.09,East,99,1.0,6.0,80,0.00,,---,0.00,VWS V14.00,2013-02-07 23:37:00,
2013-02-07 18:44:00,42.8,37.1,30.09,ESE,114,1.0,6.0,80,0.00,,---,0.00,VWS V14.00,2013-02-07 23:44:00,
2013-02-07 18:49:00,42.3,36.9,30.09,East,90,2.0,7.0,81,0.00,,---,0.00,VWS V14.00,2013-02-07 23:49:00,
2013-02-07 18:54:00,42.2,37.1,30.09,East,90,0.0,7.0,82,0.00,,---,0.00,VWS V14.00,2013-02-07 23:54:00,
2013-02-07 18:59:00,42.1,37.3,30.09,East,90,4.0,7.0,83,0.00,,---,0.00,VWS V14.00,2013-02-07 23:59:00,
2013-02-07 19:04:00,42.1,36.7,30.09,East,96,0.0,6.0,81,0.00,,---,0.00,VWS V14.00,2013-02-08 00:04:00,
2013-02-07 19:10:00,42.1,36.7,30.09,NE,49,7.0,10.0,81,0.00,,---,0.00,VWS V14.00,2013-02-08 00:10:00,
2013-02-07 19:15:00,42.1,36.7,30.09,East,79,4.0,10.0,81,0.00,,---,0.00,VWS V14.00,2013-02-08 00:15:00,
2013-02-07 19:20:00,41.9,36.5,30.09,ENE,78,4.0,10.0,81,0.00,,---,0.00,VWS V14.00,2013-02-08 00:20:00,
2013-02-07 19:25:00,41.9,36.5,30.09,ENE,72,2.0,10.0,81,0.00,,---,0.00,VWS V14.00,2013-02-08 00:25:00,
2013-02-07 19:37:00,41.9,36.5,30.08,ENE,73,6.0,10.0,81,0.00,,---,0.00,VWS V14.00,2013-02-08 00:37:00,
2013-02-07 19:42:00,41.9,36.2,30.08,NE,44,6.0,10.0,80,0.00,,---,0.00,VWS V14.00,2013-02-08 00:42:00,
2013-02-07 19:47:00,41.9,36.2,30.07,NE,44,2.0,10.0,80,0.00,,---,0.00,VWS V14.00,2013-02-08 00:47:00,
2013-02-07 19:52:00,41.9,36.2,30.07,ENE,58,8.0,10.0,80,0.00,,---,0.00,VWS V14.00,2013-02-08 00:52:00,
2013-02-07 19:57:00,42.1,36.4,30.07,ENE,65,6.0,10.0,80,0.00,,---,0.00,VWS V14.00,2013-02-08 00:57:00,
2013-02-07 20:02:00,41.9,36.2,30.07,ENE,78,7.0,7.0,80,0.00,,---,0.00,VWS V14.00,2013-02-08 01:02:00,
2013-02-07 20:07:00,41.9,36.2,30.07,NE,52,4.0,9.0,80,0.00,,---,0.00,VWS V14.00,2013-02-08 01:07:00,
2013-02-07 20:13:00,41.9,36.2,30.07,NE,54,6.0,9.0,80,0.00,,---,0.00,VWS V14.00,2013-02-08 01:13:00,
2013-02-07 20:18:00,41.9,36.2,30.06,ENE,64,2.0,9.0,80,0.00,,---,0.00,VWS V14.00,2013-02-08 01:18:00,
2013-02-07 20:23:00,41.9,36.2,30.06,NE,44,7.0,9.0,80,0.00,,---,0.00,VWS V14.00,2013-02-08 01:23:00,
2013-02-07 20:28:00,41.8,36.1,30.06,ENE,76,4.0,9.0,80,0.00,,---,0.00,VWS V14.00,2013-02-08 01:28:00,
2013-02-07 20:33:00,41.6,36.2,30.05,NE,52,4.0,9.0,81,0.00,,---,0.00,VWS V14.00,2013-02-08 01:33:00,
2013-02-07 20:38:00,41.6,36.2,30.05,ENE,69,1.0,9.0,81,0.01,,---,0.01,VWS V14.00,2013-02-08 01:38:00,
2013-02-07 20:43:00,41.5,36.7,30.05,East,83,2.0,9.0,83,0.01,,---,0.01,VWS V14.00,2013-02-08 01:43:00,
2013-02-07 20:48:00,41.2,36.4,30.06,East,80,0.0,9.0,83,0.01,,---,0.01,VWS V14.00,2013-02-08 01:48:00,
2013-02-07 20:53:00,41.1,36.6,30.06,ENE,68,1.0,9.0,84,0.01,,---,0.01,VWS V14.00,2013-02-08 01:53:00,
2013-02-07 20:58:00,41.1,36.6,30.06,East,85,4.0,9.0,84,0.01,,---,0.01,VWS V14.00,2013-02-08 01:58:00,
2013-02-07 21:03:00,41.2,36.7,30.05,ENE,66,4.0,9.0,84,0.01,,---,0.01,VWS V14.00,2013-02-08 02:03:00,
2013-02-07 21:08:00,41.2,36.7,30.05,ENE,66,0.0,9.0,84,0.01,,---,0.01,VWS V14.00,2013-02-08 02:08:00,
2013-02-07 21:13:00,41.1,36.9,30.05,ENE,66,1.0,9.0,85,0.01,,---,0.01,VWS V14.00,2013-02-08 02:13:00,
2013-02-07 21:18:00,40.9,37.0,30.04,ENE,66,0.0,9.0,86,0.01,,---,0.01,VWS V14.00,2013-02-08 02:18:00,
2013-02-07 21:23:00,40.9,37.0,30.04,ENE,66,4.0,9.0,86,0.01,,---,0.01,VWS V14.00,2013-02-08 02:23:00,
2013-02-07 21:28:00,40.9,37.0,30.04,ENE,68,0.0,9.0,86,0.01,,---,0.01,VWS V14.00,2013-02-08 02:28:00,
2013-02-07 21:33:00,40.9,37.0,30.04,SE,131,1.0,7.0,86,0.01,,---,0.01,VWS V14.00,2013-02-08 02:33:00,
2013-02-07 21:38:00,40.9,37.0,30.04,SE,126,1.0,7.0,86,0.01,,---,0.01,VWS V14.00,2013-02-08 02:38:00,
2013-02-07 21:43:00,41.1,37.2,30.04,SE,126,4.0,7.0,86,0.01,,---,0.01,VWS V14.00,2013-02-08 02:43:00,
2013-02-07 21:48:00,40.9,37.3,30.04,SE,126,0.0,7.0,87,0.01,,---,0.01,VWS V14.00,2013-02-08 02:48:00,
2013-02-07 21:53:00,40.9,37.3,30.04,SE,126,0.0,7.0,87,0.01,,---,0.01,VWS V14.00,2013-02-08 02:53:00,
2013-02-07 21:58:00,40.9,37.0,30.04,SE,126,0.0,7.0,86,0.01,,---,0.01,VWS V14.00,2013-02-08 02:58:00,
2013-02-07 22:03:00,40.8,37.2,30.03,SE,126,0.0,4.0,87,0.00,,---,0.01,VWS V14.00,2013-02-08 03:03:00,
2013-02-07 22:08:00,40.8,36.9,30.03,ENE,64,4.0,8.0,86,0.00,,---,0.01,VWS V14.00,2013-02-08 03:08:00,
2013-02-07 22:13:00,40.9,37.3,30.03,ENE,65,0.0,8.0,87,0.00,,---,0.01,VWS V14.00,2013-02-08 03:13:00,
2013-02-07 22:18:00,40.8,37.2,30.03,SSE,152,4.0,8.0,87,0.00,,---,0.01,VWS V14.00,2013-02-08 03:18:00,
2013-02-07 22:23:00,40.9,37.0,30.03,SSE,152,1.0,8.0,86,0.00,,---,0.01,VWS V14.00,2013-02-08 03:23:00,
2013-02-07 22:28:00,40.8,37.2,30.03,ESE,106,4.0,8.0,87,0.00,,---,0.01,VWS V14.00,2013-02-08 03:28:00,
2013-02-07 22:33:00,40.8,37.2,30.02,ESE,104,0.0,7.0,87,0.00,,---,0.01,VWS V14.00,2013-02-08 03:33:00,
2013-02-07 22:38:00,40.6,37.0,30.02,ESE,106,1.0,7.0,87,0.00,,---,0.01,VWS V14.00,2013-02-08 03:38:00,
2013-02-07 22:43:00,40.6,37.0,30.02,ESE,109,0.0,7.0,87,0.00,,---,0.01,VWS V14.00,2013-02-08 03:43:00,
2013-02-07 22:48:00,40.6,37.0,30.01,ESE,107,0.0,7.0,87,0.00,,---,0.01,VWS V14.00,2013-02-08 03:48:00,
2013-02-07 22:53:00,40.8,37.2,30.01,ESE,107,0.0,7.0,87,0.00,,---,0.01,VWS V14.00,2013-02-08 03:53:00,
2013-02-07 22:58:00,40.6,37.0,30.01,ESE,107,2.0,7.0,87,0.00,,---,0.01,VWS V14.00,2013-02-08 03:58:00,
2013-02-07 23:03:00,40.6,37.0,30.00,ESE,107,2.0,6.0,87,0.00,,---,0.01,VWS V14.00,2013-02-08 04:03:00,
2013-02-07 23:08:00,40.6,37.0,30.00,ESE,106,0.0,6.0,87,0.00,,---,0.01,VWS V14.00,2013-02-08 04:08:00,
2013-02-07 23:13:00,40.6,37.0,30.00,ESE,107,4.0,6.0,87,0.00,,---,0.01,VWS V14.00,2013-02-08 04:13:00,
2013-02-07 23:18:00,40.6,37.0,29.99,ESE,107,2.0,7.0,87,0.00,,---,0.01,VWS V14.00,2013-02-08 04:18:00,
2013-02-07 23:23:00,40.8,36.9,29.99,ESE,109,2.0,7.0,86,0.00,,---,0.01,VWS V14.00,2013-02-08 04:23:00,
2013-02-07 23:28:00,40.6,37.0,29.99,ESE,109,0.0,7.0,87,0.00,,---,0.01,VWS V14.00,2013-02-08 04:28:00,
2013-02-07 23:33:00,40.6,37.0,30.00,ESE,109,0.0,4.0,87,0.00,,---,0.01,VWS V14.00,2013-02-08 04:33:00,
2013-02-07 23:38:00,40.6,37.0,30.00,ESE,109,0.0,4.0,87,0.00,,---,0.01,VWS V14.00,2013-02-08 04:38:00,
2013-02-07 23:43:00,40.5,36.9,30.00,ESE,107,1.0,4.0,87,0.00,,---,0.01,VWS V14.00,2013-02-08 04:43:00,
2013-02-07 23:48:00,40.5,36.9,29.99,SE,131,0.0,7.0,87,0.00,,---,0.01,VWS V14.00,2013-02-08 04:48:00,
2013-02-07 23:53:00,40.6,37.0,29.99,SE,133,0.0,7.0,87,0.00,,---,0.01,VWS V14.00,2013-02-08 04:53:00,
2013-02-07 23:58:00,40.6,37.0,29.99,SE,133,0.0,7.0,87,0.00,,---,0.01,VWS V14.00,2013-02-08 04:58:00,